sensor_id;sensor_type;location;lat;lon;timestamp;pressure;altitude;pressure_sealevel;temperature;humidity
51229;BME280;37304;52.216;6.874;2023-06-22T00:01:37;101627.50;;;19.24;100.00
51229;BME280;37304;52.216;6.874;2023-06-22T00:06:38;101627.66;;;19.19;100.00
51229;BME280;37304;52.216;6.874;2023-06-22T00:11:38;101620.63;;;19.19;100.00
51229;BME280;37304;52.216;6.874;2023-06-22T00:16:38;101611.19;;;19.14;100.00
51229;BME280;37304;52.216;6.874;2023-06-22T00:21:39;101610.25;;;19.15;100.00
51229;BME280;37304;52.216;6.874;2023-06-22T00:26:39;101602.56;;;19.10;100.00
51229;BME280;37304;52.216;6.874;2023-06-22T00:31:39;101599.38;;;19.02;100.00
51229;BME280;37304;52.216;6.874;2023-06-22T00:36:40;101608.34;;;18.98;100.00
51229;BME280;37304;52.216;6.874;2023-06-22T00:41:41;101594.50;;;18.91;100.00
51229;BME280;37304;52.216;6.874;2023-06-22T00:46:41;101592.03;;;18.86;100.00
51229;BME280;37304;52.216;6.874;2023-06-22T00:51:41;101582.66;;;18.79;100.00
51229;BME280;37304;52.216;6.874;2023-06-22T00:56:45;101587.03;;;18.80;100.00
51229;BME280;37304;52.216;6.874;2023-06-22T01:01:46;101581.75;;;18.80;100.00
51229;BME280;37304;52.216;6.874;2023-06-22T01:06:59;101582.91;;;18.73;100.00
51229;BME280;37304;52.216;6.874;2023-06-22T01:12:06;101589.28;;;18.67;100.00
51229;BME280;37304;52.216;6.874;2023-06-22T01:17:08;101590.25;;;18.65;100.00
51229;BME280;37304;52.216;6.874;2023-06-22T01:22:10;101597.25;;;18.66;100.00
51229;BME280;37304;52.216;6.874;2023-06-22T01:32:46;101594.41;;;18.48;100.00
51229;BME280;37304;52.216;6.874;2023-06-22T01:37:47;101586.66;;;18.43;100.00
51229;BME280;37304;52.216;6.874;2023-06-22T01:42:50;101592.00;;;18.42;100.00
51229;BME280;37304;52.216;6.874;2023-06-22T01:47:51;101581.41;;;18.43;100.00
51229;BME280;37304;52.216;6.874;2023-06-22T01:52:51;101579.81;;;18.39;100.00
51229;BME280;37304;52.216;6.874;2023-06-22T01:57:52;101585.03;;;18.41;100.00
51229;BME280;37304;52.216;6.874;2023-06-22T02:08:07;101584.56;;;18.29;100.00
51229;BME280;37304;52.216;6.874;2023-06-22T02:13:10;101581.63;;;18.37;100.00
51229;BME280;37304;52.216;6.874;2023-06-22T02:18:11;101578.16;;;18.37;100.00
51229;BME280;37304;52.216;6.874;2023-06-22T02:23:12;101577.66;;;18.27;100.00
51229;BME280;37304;52.216;6.874;2023-06-22T02:28:12;101583.81;;;18.26;100.00
51229;BME280;37304;52.216;6.874;2023-06-22T02:33:13;101586.53;;;18.24;100.00
51229;BME280;37304;52.216;6.874;2023-06-22T02:38:13;101582.38;;;18.17;100.00
51229;BME280;37304;52.216;6.874;2023-06-22T02:43:14;101575.41;;;18.16;100.00
51229;BME280;37304;52.216;6.874;2023-06-22T02:48:14;101581.81;;;18.09;100.00
51229;BME280;37304;52.216;6.874;2023-06-22T02:53:15;101587.59;;;18.18;100.00
51229;BME280;37304;52.216;6.874;2023-06-22T02:58:15;101586.16;;;18.10;100.00
51229;BME280;37304;52.216;6.874;2023-06-22T03:03:16;101584.44;;;18.09;100.00
51229;BME280;37304;52.216;6.874;2023-06-22T03:08:16;101581.81;;;18.09;100.00
51229;BME280;37304;52.216;6.874;2023-06-22T03:13:17;101580.28;;;18.03;100.00
51229;BME280;37304;52.216;6.874;2023-06-22T03:18:17;101581.31;;;17.97;100.00
51229;BME280;37304;52.216;6.874;2023-06-22T03:23:17;101578.00;;;17.92;100.00
51229;BME280;37304;52.216;6.874;2023-06-22T03:28:18;101576.38;;;17.88;100.00
51229;BME280;37304;52.216;6.874;2023-06-22T03:33:18;101577.19;;;17.90;100.00
51229;BME280;37304;52.216;6.874;2023-06-22T03:38:19;101584.38;;;17.85;100.00
51229;BME280;37304;52.216;6.874;2023-06-22T03:43:19;101573.97;;;17.82;100.00
51229;BME280;37304;52.216;6.874;2023-06-22T03:48:19;101563.28;;;17.86;100.00
51229;BME280;37304;52.216;6.874;2023-06-22T03:53:20;101572.16;;;17.84;100.00
51229;BME280;37304;52.216;6.874;2023-06-22T03:58:21;101571.94;;;17.90;100.00
51229;BME280;37304;52.216;6.874;2023-06-22T04:03:21;101554.78;;;17.80;100.00
51229;BME280;37304;52.216;6.874;2023-06-22T04:08:22;101559.16;;;17.79;100.00
51229;BME280;37304;52.216;6.874;2023-06-22T04:13:22;101553.63;;;17.87;100.00
51229;BME280;37304;52.216;6.874;2023-06-22T04:18:22;101561.53;;;17.87;100.00
51229;BME280;37304;52.216;6.874;2023-06-22T04:23:23;101560.56;;;17.89;100.00
51229;BME280;37304;52.216;6.874;2023-06-22T04:28:23;101558.44;;;17.99;100.00
51229;BME280;37304;52.216;6.874;2023-06-22T04:33:23;101560.22;;;17.99;100.00
51229;BME280;37304;52.216;6.874;2023-06-22T04:38:24;101553.38;;;17.95;100.00
51229;BME280;37304;52.216;6.874;2023-06-22T04:43:24;101555.31;;;17.89;100.00
51229;BME280;37304;52.216;6.874;2023-06-22T04:48:25;101547.47;;;17.88;100.00
51229;BME280;37304;52.216;6.874;2023-06-22T04:53:25;101546.59;;;17.87;100.00
51229;BME280;37304;52.216;6.874;2023-06-22T04:58:29;101544.69;;;17.93;100.00
51229;BME280;37304;52.216;6.874;2023-06-22T05:03:32;101546.16;;;18.00;100.00
51229;BME280;37304;52.216;6.874;2023-06-22T05:08:33;101530.56;;;18.19;100.00
51229;BME280;37304;52.216;6.874;2023-06-22T05:13:33;101538.75;;;18.35;100.00
51229;BME280;37304;52.216;6.874;2023-06-22T05:18:35;101541.38;;;18.35;100.00
51229;BME280;37304;52.216;6.874;2023-06-22T05:23:36;101531.25;;;18.48;100.00
51229;BME280;37304;52.216;6.874;2023-06-22T05:28:36;101527.81;;;18.68;100.00
51229;BME280;37304;52.216;6.874;2023-06-22T05:33:37;101536.44;;;18.72;100.00
51229;BME280;37304;52.216;6.874;2023-06-22T05:38:37;101534.00;;;18.89;100.00
51229;BME280;37304;52.216;6.874;2023-06-22T05:43:37;101528.66;;;19.13;100.00
51229;BME280;37304;52.216;6.874;2023-06-22T05:48:38;101524.31;;;19.33;100.00
51229;BME280;37304;52.216;6.874;2023-06-22T05:53:38;101522.06;;;19.44;100.00
51229;BME280;37304;52.216;6.874;2023-06-22T05:58:38;101531.28;;;19.75;100.00
51229;BME280;37304;52.216;6.874;2023-06-22T06:03:39;101525.00;;;20.18;100.00
51229;BME280;37304;52.216;6.874;2023-06-22T06:08:41;101542.97;;;20.10;100.00
51229;BME280;37304;52.216;6.874;2023-06-22T06:13:41;101554.03;;;20.18;100.00
51229;BME280;37304;52.216;6.874;2023-06-22T06:18:42;101549.97;;;20.30;100.00
51229;BME280;37304;52.216;6.874;2023-06-22T06:23:42;101551.19;;;20.42;100.00
51229;BME280;37304;52.216;6.874;2023-06-22T06:28:43;101540.00;;;20.36;100.00
51229;BME280;37304;52.216;6.874;2023-06-22T06:33:43;101541.19;;;20.48;100.00
51229;BME280;37304;52.216;6.874;2023-06-22T06:38:44;101530.25;;;20.75;100.00
51229;BME280;37304;52.216;6.874;2023-06-22T06:43:44;101522.53;;;20.90;100.00
51229;BME280;37304;52.216;6.874;2023-06-22T06:48:45;101520.44;;;21.14;100.00
51229;BME280;37304;52.216;6.874;2023-06-22T06:53:45;101527.75;;;21.27;100.00
51229;BME280;37304;52.216;6.874;2023-06-22T06:58:46;101535.44;;;21.31;100.00
51229;BME280;37304;52.216;6.874;2023-06-22T07:03:46;101532.16;;;21.44;100.00
51229;BME280;37304;52.216;6.874;2023-06-22T07:08:46;101521.94;;;21.53;100.00
51229;BME280;37304;52.216;6.874;2023-06-22T07:13:47;101521.97;;;21.71;100.00
51229;BME280;37304;52.216;6.874;2023-06-22T07:18:47;101518.91;;;21.79;100.00
51229;BME280;37304;52.216;6.874;2023-06-22T07:23:47;101507.34;;;21.98;100.00
51229;BME280;37304;52.216;6.874;2023-06-22T07:28:48;101498.09;;;21.89;100.00
51229;BME280;37304;52.216;6.874;2023-06-22T07:33:48;101498.63;;;22.11;100.00
51229;BME280;37304;52.216;6.874;2023-06-22T07:38:49;101494.22;;;22.28;100.00
51229;BME280;37304;52.216;6.874;2023-06-22T07:43:49;101487.88;;;22.15;100.00
51229;BME280;37304;52.216;6.874;2023-06-22T07:48:49;101490.75;;;22.42;100.00
51229;BME280;37304;52.216;6.874;2023-06-22T07:53:50;101492.63;;;22.40;100.00
51229;BME280;37304;52.216;6.874;2023-06-22T07:58:50;101483.38;;;22.49;100.00
51229;BME280;37304;52.216;6.874;2023-06-22T08:03:50;101484.19;;;22.65;100.00
51229;BME280;37304;52.216;6.874;2023-06-22T08:08:51;101477.28;;;22.93;100.00
51229;BME280;37304;52.216;6.874;2023-06-22T08:13:54;101473.03;;;22.75;100.00
51229;BME280;37304;52.216;6.874;2023-06-22T08:18:55;101477.03;;;22.82;100.00
51229;BME280;37304;52.216;6.874;2023-06-22T08:23:56;101469.38;;;23.08;100.00
51229;BME280;37304;52.216;6.874;2023-06-22T08:28:56;101466.69;;;23.24;100.00
51229;BME280;37304;52.216;6.874;2023-06-22T08:33:57;101473.31;;;23.46;100.00
51229;BME280;37304;52.216;6.874;2023-06-22T08:38:57;101465.06;;;23.50;100.00
51229;BME280;37304;52.216;6.874;2023-06-22T08:44:02;101461.31;;;23.54;100.00
51229;BME280;37304;52.216;6.874;2023-06-22T08:49:04;101455.88;;;23.56;100.00
51229;BME280;37304;52.216;6.874;2023-06-22T08:54:04;101437.59;;;23.66;100.00
51229;BME280;37304;52.216;6.874;2023-06-22T08:59:05;101425.44;;;23.76;100.00
51229;BME280;37304;52.216;6.874;2023-06-22T09:04:08;101418.84;;;24.11;100.00
51229;BME280;37304;52.216;6.874;2023-06-22T09:09:09;101409.53;;;24.58;100.00
51229;BME280;37304;52.216;6.874;2023-06-22T09:14:10;101409.38;;;25.13;100.00
51229;BME280;37304;52.216;6.874;2023-06-22T09:19:11;101413.94;;;25.50;100.00
51229;BME280;37304;52.216;6.874;2023-06-22T09:24:11;101403.53;;;25.08;100.00
51229;BME280;37304;52.216;6.874;2023-06-22T09:29:12;101401.41;;;25.26;100.00
51229;BME280;37304;52.216;6.874;2023-06-22T09:34:12;101406.31;;;25.07;100.00
51229;BME280;37304;52.216;6.874;2023-06-22T09:39:13;101404.41;;;25.09;100.00
51229;BME280;37304;52.216;6.874;2023-06-22T09:44:13;101394.50;;;24.98;100.00
51229;BME280;37304;52.216;6.874;2023-06-22T09:49:13;101391.72;;;24.74;100.00
51229;BME280;37304;52.216;6.874;2023-06-22T09:54:14;101394.88;;;24.66;100.00
51229;BME280;37304;52.216;6.874;2023-06-22T09:59:14;101390.19;;;24.69;100.00
51229;BME280;37304;52.216;6.874;2023-06-22T10:04:15;101386.94;;;24.79;100.00
51229;BME280;37304;52.216;6.874;2023-06-22T10:09:15;101379.28;;;25.00;100.00
51229;BME280;37304;52.216;6.874;2023-06-22T10:14:15;101375.59;;;25.03;100.00
51229;BME280;37304;52.216;6.874;2023-06-22T10:19:17;101380.38;;;24.84;100.00
51229;BME280;37304;52.216;6.874;2023-06-22T10:24:17;101378.22;;;24.90;100.00
51229;BME280;37304;52.216;6.874;2023-06-22T10:29:18;101368.25;;;24.93;100.00
51229;BME280;37304;52.216;6.874;2023-06-22T10:34:18;101367.81;;;24.74;100.00
51229;BME280;37304;52.216;6.874;2023-06-22T10:39:19;101375.00;;;24.58;100.00
51229;BME280;37304;52.216;6.874;2023-06-22T10:44:19;101375.00;;;24.71;100.00
51229;BME280;37304;52.216;6.874;2023-06-22T10:49:20;101367.72;;;24.75;100.00
51229;BME280;37304;52.216;6.874;2023-06-22T10:54:21;101377.34;;;24.63;100.00
51229;BME280;37304;52.216;6.874;2023-06-22T10:59:21;101374.75;;;24.49;100.00
51229;BME280;37304;52.216;6.874;2023-06-22T11:04:23;101361.63;;;24.73;100.00
51229;BME280;37304;52.216;6.874;2023-06-22T11:09:24;101348.56;;;24.83;100.00
51229;BME280;37304;52.216;6.874;2023-06-22T11:14:25;101345.88;;;24.70;100.00
51229;BME280;37304;52.216;6.874;2023-06-22T11:19:25;101345.72;;;24.86;100.00
51229;BME280;37304;52.216;6.874;2023-06-22T11:24:26;101343.94;;;24.46;100.00
51229;BME280;37304;52.216;6.874;2023-06-22T11:29:26;101324.59;;;24.44;100.00
51229;BME280;37304;52.216;6.874;2023-06-22T11:34:26;101312.72;;;24.63;100.00
51229;BME280;37304;52.216;6.874;2023-06-22T11:39:28;101311.69;;;24.78;100.00
51229;BME280;37304;52.216;6.874;2023-06-22T11:44:28;101311.34;;;24.70;100.00
51229;BME280;37304;52.216;6.874;2023-06-22T11:49:29;101295.72;;;24.52;100.00
51229;BME280;37304;52.216;6.874;2023-06-22T11:54:30;101304.28;;;24.43;100.00
51229;BME280;37304;52.216;6.874;2023-06-22T11:59:30;101300.69;;;24.31;100.00
51229;BME280;37304;52.216;6.874;2023-06-22T12:04:30;101286.94;;;24.11;100.00
51229;BME280;37304;52.216;6.874;2023-06-22T12:09:31;101291.50;;;24.09;100.00
51229;BME280;37304;52.216;6.874;2023-06-22T12:14:31;101287.53;;;24.02;100.00
51229;BME280;37304;52.216;6.874;2023-06-22T12:19:31;101293.44;;;23.93;100.00
51229;BME280;37304;52.216;6.874;2023-06-22T12:24:32;101295.84;;;23.83;100.00
51229;BME280;37304;52.216;6.874;2023-06-22T12:29:32;101299.09;;;23.74;100.00
51229;BME280;37304;52.216;6.874;2023-06-22T12:34:33;101310.78;;;23.71;100.00
51229;BME280;37304;52.216;6.874;2023-06-22T12:39:33;101311.75;;;23.70;100.00
51229;BME280;37304;52.216;6.874;2023-06-22T12:44:33;101322.41;;;23.55;100.00
51229;BME280;37304;52.216;6.874;2023-06-22T12:49:34;101322.03;;;23.33;100.00
51229;BME280;37304;52.216;6.874;2023-06-22T12:54:35;101305.38;;;23.16;100.00
51229;BME280;37304;52.216;6.874;2023-06-22T12:59:35;101309.94;;;23.29;100.00
51229;BME280;37304;52.216;6.874;2023-06-22T13:04:36;101313.44;;;23.29;100.00
51229;BME280;37304;52.216;6.874;2023-06-22T13:09:36;101311.44;;;23.04;100.00
51229;BME280;37304;52.216;6.874;2023-06-22T13:14:37;101292.31;;;22.84;100.00
51229;BME280;37304;52.216;6.874;2023-06-22T13:19:37;101289.84;;;22.52;100.00
51229;BME280;37304;52.216;6.874;2023-06-22T13:24:38;101303.56;;;22.28;100.00
51229;BME280;37304;52.216;6.874;2023-06-22T13:29:38;101309.34;;;22.35;100.00
51229;BME280;37304;52.216;6.874;2023-06-22T13:34:38;101300.81;;;21.99;100.00
51229;BME280;37304;52.216;6.874;2023-06-22T13:39:39;101302.41;;;21.71;100.00
51229;BME280;37304;52.216;6.874;2023-06-22T13:44:39;101268.69;;;21.43;100.00
51229;BME280;37304;52.216;6.874;2023-06-22T13:49:40;101264.25;;;21.11;100.00
51229;BME280;37304;52.216;6.874;2023-06-22T13:54:40;101279.69;;;20.85;100.00
51229;BME280;37304;52.216;6.874;2023-06-22T13:59:40;101283.59;;;20.95;100.00
51229;BME280;37304;52.216;6.874;2023-06-22T14:04:41;101270.53;;;20.92;100.00
51229;BME280;37304;52.216;6.874;2023-06-22T14:09:41;101272.25;;;20.93;100.00
51229;BME280;37304;52.216;6.874;2023-06-22T14:14:42;101248.81;;;21.03;100.00
51229;BME280;37304;52.216;6.874;2023-06-22T14:19:42;101237.31;;;21.36;100.00
51229;BME280;37304;52.216;6.874;2023-06-22T14:24:43;101220.47;;;21.70;100.00
51229;BME280;37304;52.216;6.874;2023-06-22T14:29:43;101208.53;;;22.23;100.00
51229;BME280;37304;52.216;6.874;2023-06-22T14:34:44;101206.06;;;22.20;100.00
51229;BME280;37304;52.216;6.874;2023-06-22T14:39:44;101204.75;;;22.28;100.00
51229;BME280;37304;52.216;6.874;2023-06-22T14:44:44;101183.38;;;22.16;100.00
51229;BME280;37304;52.216;6.874;2023-06-22T14:49:45;101178.47;;;22.24;100.00
51229;BME280;37304;52.216;6.874;2023-06-22T14:54:45;101156.63;;;22.64;100.00
51229;BME280;37304;52.216;6.874;2023-06-22T14:59:46;101146.25;;;22.47;100.00
51229;BME280;37304;52.216;6.874;2023-06-22T15:04:48;101140.66;;;22.22;100.00
51229;BME280;37304;52.216;6.874;2023-06-22T15:09:49;101124.19;;;22.32;100.00
51229;BME280;37304;52.216;6.874;2023-06-22T15:14:49;101111.16;;;22.14;100.00
51229;BME280;37304;52.216;6.874;2023-06-22T15:19:50;101107.81;;;21.96;100.00
51229;BME280;37304;52.216;6.874;2023-06-22T15:24:50;101100.00;;;22.09;100.00
51229;BME280;37304;52.216;6.874;2023-06-22T15:29:53;101101.22;;;21.89;100.00
51229;BME280;37304;52.216;6.874;2023-06-22T15:34:53;101095.72;;;21.77;100.00
51229;BME280;37304;52.216;6.874;2023-06-22T15:39:56;101105.53;;;21.75;100.00
51229;BME280;37304;52.216;6.874;2023-06-22T15:44:58;101109.41;;;21.53;100.00
51229;BME280;37304;52.216;6.874;2023-06-22T15:49:59;101092.56;;;21.40;100.00
51229;BME280;37304;52.216;6.874;2023-06-22T15:54:59;101059.16;;;21.39;100.00
51229;BME280;37304;52.216;6.874;2023-06-22T16:00:00;101043.28;;;21.39;100.00
51229;BME280;37304;52.216;6.874;2023-06-22T16:05:01;101043.75;;;21.31;100.00
51229;BME280;37304;52.216;6.874;2023-06-22T16:10:04;101039.28;;;21.17;100.00
51229;BME280;37304;52.216;6.874;2023-06-22T16:15:05;101037.03;;;21.26;100.00
51229;BME280;37304;52.216;6.874;2023-06-22T16:20:07;101042.09;;;21.14;100.00
51229;BME280;37304;52.216;6.874;2023-06-22T16:25:08;101030.53;;;21.01;100.00
51229;BME280;37304;52.216;6.874;2023-06-22T16:30:08;101013.59;;;20.89;100.00
51229;BME280;37304;52.216;6.874;2023-06-22T16:35:09;101011.50;;;20.79;100.00
51229;BME280;37304;52.216;6.874;2023-06-22T16:40:09;101012.56;;;20.75;100.00
51229;BME280;37304;52.216;6.874;2023-06-22T16:45:13;101018.91;;;20.57;100.00
51229;BME280;37304;52.216;6.874;2023-06-22T16:50:13;101042.72;;;20.55;100.00
51229;BME280;37304;52.216;6.874;2023-06-22T16:55:14;101079.94;;;20.50;100.00
51229;BME280;37304;52.216;6.874;2023-06-22T17:00:15;101124.47;;;20.41;100.00
51229;BME280;37304;52.216;6.874;2023-06-22T17:05:16;101174.25;;;20.31;100.00
51229;BME280;37304;52.216;6.874;2023-06-22T17:10:20;101197.16;;;20.13;100.00
51229;BME280;37304;52.216;6.874;2023-06-22T17:15:22;101198.53;;;20.04;100.00
51229;BME280;37304;52.216;6.874;2023-06-22T17:20:22;101183.69;;;20.01;100.00
51229;BME280;37304;52.216;6.874;2023-06-22T17:25:23;101178.38;;;19.66;100.00
51229;BME280;37304;52.216;6.874;2023-06-22T17:30:24;101173.31;;;19.61;100.00
51229;BME280;37304;52.216;6.874;2023-06-22T17:35:25;101172.59;;;19.40;100.00
51229;BME280;37304;52.216;6.874;2023-06-22T17:40:26;101173.53;;;19.39;100.00
51229;BME280;37304;52.216;6.874;2023-06-22T17:45:27;101165.00;;;19.34;100.00
51229;BME280;37304;52.216;6.874;2023-06-22T17:50:28;101135.97;;;19.16;100.00
51229;BME280;37304;52.216;6.874;2023-06-22T17:55:29;101126.88;;;19.04;100.00
51229;BME280;37304;52.216;6.874;2023-06-22T18:00:30;101125.81;;;18.89;100.00
51229;BME280;37304;52.216;6.874;2023-06-22T18:05:33;101128.00;;;18.60;100.00
51229;BME280;37304;52.216;6.874;2023-06-22T18:10:35;101126.84;;;18.28;100.00
51229;BME280;37304;52.216;6.874;2023-06-22T18:15:37;101120.41;;;18.14;100.00
51229;BME280;37304;52.216;6.874;2023-06-22T18:20:39;101126.38;;;17.97;100.00
51229;BME280;37304;52.216;6.874;2023-06-22T18:25:42;101132.44;;;17.79;100.00
51229;BME280;37304;52.216;6.874;2023-06-22T18:30:45;101130.72;;;17.78;100.00
51229;BME280;37304;52.216;6.874;2023-06-22T18:35:49;101136.84;;;17.56;100.00
51229;BME280;37304;52.216;6.874;2023-06-22T18:40:51;101134.88;;;17.40;100.00
51229;BME280;37304;52.216;6.874;2023-06-22T18:45:52;101128.56;;;17.22;100.00
51229;BME280;37304;52.216;6.874;2023-06-22T18:51:10;101121.69;;;17.20;100.00
51229;BME280;37304;52.216;6.874;2023-06-22T18:56:12;101119.84;;;16.99;100.00
51229;BME280;37304;52.216;6.874;2023-06-22T19:01:17;101131.66;;;16.87;100.00
51229;BME280;37304;52.216;6.874;2023-06-22T19:12:18;101138.72;;;16.63;100.00
51229;BME280;37304;52.216;6.874;2023-06-22T19:17:19;101135.59;;;16.52;100.00
51229;BME280;37304;52.216;6.874;2023-06-22T19:22:23;101140.28;;;16.43;100.00
51229;BME280;37304;52.216;6.874;2023-06-22T19:27:43;101136.47;;;16.28;100.00
51229;BME280;37304;52.216;6.874;2023-06-22T19:32:44;101137.53;;;16.23;100.00
51229;BME280;37304;52.216;6.874;2023-06-22T19:37:46;101142.88;;;16.20;100.00
51229;BME280;37304;52.216;6.874;2023-06-22T19:42:47;101153.41;;;16.18;100.00
51229;BME280;37304;52.216;6.874;2023-06-22T19:47:48;101156.34;;;16.09;100.00
51229;BME280;37304;52.216;6.874;2023-06-22T19:52:53;101157.34;;;16.06;100.00
51229;BME280;37304;52.216;6.874;2023-06-22T19:57:54;101157.19;;;15.84;100.00
51229;BME280;37304;52.216;6.874;2023-06-22T20:02:54;101168.88;;;15.73;100.00
51229;BME280;37304;52.216;6.874;2023-06-22T20:07:55;101174.81;;;15.79;100.00
51229;BME280;37304;52.216;6.874;2023-06-22T20:12:55;101161.44;;;15.86;100.00
51229;BME280;37304;52.216;6.874;2023-06-22T20:18:01;101154.59;;;15.82;100.00
51229;BME280;37304;52.216;6.874;2023-06-22T20:23:02;101151.88;;;15.85;100.00
51229;BME280;37304;52.216;6.874;2023-06-22T20:28:13;101141.44;;;15.84;100.00
51229;BME280;37304;52.216;6.874;2023-06-22T20:33:15;101149.53;;;15.78;100.00
51229;BME280;37304;52.216;6.874;2023-06-22T20:38:16;101170.53;;;15.76;100.00
51229;BME280;37304;52.216;6.874;2023-06-22T20:43:16;101160.84;;;15.78;100.00
51229;BME280;37304;52.216;6.874;2023-06-22T20:48:16;101178.44;;;15.75;100.00
51229;BME280;37304;52.216;6.874;2023-06-22T20:53:17;101182.22;;;15.66;100.00
51229;BME280;37304;52.216;6.874;2023-06-22T20:58:17;101198.03;;;15.63;100.00
51229;BME280;37304;52.216;6.874;2023-06-22T21:03:18;101198.25;;;15.56;100.00
51229;BME280;37304;52.216;6.874;2023-06-22T21:08:18;101213.03;;;15.59;100.00
51229;BME280;37304;52.216;6.874;2023-06-22T21:13:19;101213.47;;;15.72;100.00
51229;BME280;37304;52.216;6.874;2023-06-22T21:18:21;101220.88;;;15.59;100.00
51229;BME280;37304;52.216;6.874;2023-06-22T21:23:21;101227.03;;;15.58;100.00
51229;BME280;37304;52.216;6.874;2023-06-22T21:28:22;101227.91;;;15.57;100.00
51229;BME280;37304;52.216;6.874;2023-06-22T21:33:22;101243.69;;;15.55;100.00
51229;BME280;37304;52.216;6.874;2023-06-22T21:38:23;101239.94;;;15.64;100.00
51229;BME280;37304;52.216;6.874;2023-06-22T21:43:23;101254.25;;;15.52;100.00
51229;BME280;37304;52.216;6.874;2023-06-22T21:48:24;101251.72;;;15.49;100.00
51229;BME280;37304;52.216;6.874;2023-06-22T21:53:24;101254.47;;;15.44;100.00
51229;BME280;37304;52.216;6.874;2023-06-22T21:58:30;101248.00;;;15.28;100.00
51229;BME280;37304;52.216;6.874;2023-06-22T22:03:30;101242.47;;;15.37;100.00
51229;BME280;37304;52.216;6.874;2023-06-22T22:08:30;101262.53;;;15.38;100.00
51229;BME280;37304;52.216;6.874;2023-06-22T22:13:31;101255.53;;;15.39;100.00
51229;BME280;37304;52.216;6.874;2023-06-22T22:18:32;101246.97;;;15.34;100.00
51229;BME280;37304;52.216;6.874;2023-06-22T22:23:33;101244.38;;;15.32;100.00
51229;BME280;37304;52.216;6.874;2023-06-22T22:28:34;101249.41;;;15.40;100.00
51229;BME280;37304;52.216;6.874;2023-06-22T22:33:34;101271.25;;;15.39;100.00
51229;BME280;37304;52.216;6.874;2023-06-22T22:38:36;101254.81;;;15.34;100.00
51229;BME280;37304;52.216;6.874;2023-06-22T22:43:40;101265.13;;;15.38;100.00
51229;BME280;37304;52.216;6.874;2023-06-22T22:48:41;101265.19;;;15.37;100.00
51229;BME280;37304;52.216;6.874;2023-06-22T22:53:41;101276.59;;;15.36;100.00
51229;BME280;37304;52.216;6.874;2023-06-22T22:58:42;101289.50;;;15.42;100.00
51229;BME280;37304;52.216;6.874;2023-06-22T23:03:42;101296.34;;;15.46;100.00
51229;BME280;37304;52.216;6.874;2023-06-22T23:08:43;101305.94;;;15.47;100.00
51229;BME280;37304;52.216;6.874;2023-06-22T23:13:43;101324.38;;;15.42;100.00
51229;BME280;37304;52.216;6.874;2023-06-22T23:18:44;101340.91;;;15.44;100.00
51229;BME280;37304;52.216;6.874;2023-06-22T23:23:44;101347.75;;;15.50;100.00
51229;BME280;37304;52.216;6.874;2023-06-22T23:28:45;101351.03;;;15.57;100.00
51229;BME280;37304;52.216;6.874;2023-06-22T23:33:45;101357.84;;;15.63;100.00
51229;BME280;37304;52.216;6.874;2023-06-22T23:38:45;101354.13;;;15.70;100.00
51229;BME280;37304;52.216;6.874;2023-06-22T23:43:46;101348.91;;;15.70;100.00
51229;BME280;37304;52.216;6.874;2023-06-22T23:48:47;101341.81;;;15.73;100.00
51229;BME280;37304;52.216;6.874;2023-06-22T23:53:47;101347.88;;;15.76;100.00
51229;BME280;37304;52.216;6.874;2023-06-22T23:58:51;101354.97;;;15.72;100.00
